sensor_id;sensor_type;location;lat;lon;timestamp;P1;durP1;ratioP1;P2;durP2;ratioP2
20397;SDS011;10358;49.590;11.030;2024-02-04T00:00:31;4.07;;;2.20;;
20397;SDS011;10358;49.590;11.030;2024-02-04T00:02:57;3.00;;;2.00;;
20397;SDS011;10358;49.590;11.030;2024-02-04T00:05:23;2.77;;;1.97;;
20397;SDS011;10358;49.590;11.030;2024-02-04T00:07:49;3.77;;;2.20;;
20397;SDS011;10358;49.590;11.030;2024-02-04T00:10:14;4.30;;;1.90;;
20397;SDS011;10358;49.590;11.030;2024-02-04T00:12:42;2.43;;;1.67;;
20397;SDS011;10358;49.590;11.030;2024-02-04T00:15:07;2.60;;;2.03;;
20397;SDS011;10358;49.590;11.030;2024-02-04T00:17:33;3.70;;;1.83;;
20397;SDS011;10358;49.590;11.030;2024-02-04T00:20:02;3.43;;;1.93;;
20397;SDS011;10358;49.590;11.030;2024-02-04T00:22:30;4.80;;;2.00;;
20397;SDS011;10358;49.590;11.030;2024-02-04T00:24:56;1.90;;;1.70;;
20397;SDS011;10358;49.590;11.030;2024-02-04T00:27:26;3.30;;;2.13;;
20397;SDS011;10358;49.590;11.030;2024-02-04T00:29:52;2.00;;;1.60;;
20397;SDS011;10358;49.590;11.030;2024-02-04T00:32:17;2.67;;;2.00;;
20397;SDS011;10358;49.590;11.030;2024-02-04T00:34:43;2.43;;;1.80;;
20397;SDS011;10358;49.590;11.030;2024-02-04T00:37:09;1.90;;;1.70;;
20397;SDS011;10358;49.590;11.030;2024-02-04T00:39:34;2.90;;;1.90;;
20397;SDS011;10358;49.590;11.030;2024-02-04T00:42:00;2.67;;;2.03;;
20397;SDS011;10358;49.590;11.030;2024-02-04T00:44:26;2.10;;;1.70;;
20397;SDS011;10358;49.590;11.030;2024-02-04T00:46:51;2.70;;;1.73;;
20397;SDS011;10358;49.590;11.030;2024-02-04T00:49:17;2.80;;;1.80;;
20397;SDS011;10358;49.590;11.030;2024-02-04T00:51:42;5.10;;;1.70;;
20397;SDS011;10358;49.590;11.030;2024-02-04T00:54:08;2.83;;;1.90;;
20397;SDS011;10358;49.590;11.030;2024-02-04T00:56:34;3.17;;;1.83;;
20397;SDS011;10358;49.590;11.030;2024-02-04T00:59:00;3.73;;;1.57;;
20397;SDS011;10358;49.590;11.030;2024-02-04T01:01:26;2.57;;;1.70;;
20397;SDS011;10358;49.590;11.030;2024-02-04T01:03:51;3.43;;;1.50;;
20397;SDS011;10358;49.590;11.030;2024-02-04T01:06:17;2.00;;;1.47;;
20397;SDS011;10358;49.590;11.030;2024-02-04T01:08:42;3.30;;;1.30;;
20397;SDS011;10358;49.590;11.030;2024-02-04T01:11:08;1.87;;;1.50;;
20397;SDS011;10358;49.590;11.030;2024-02-04T01:13:33;3.27;;;1.53;;
20397;SDS011;10358;49.590;11.030;2024-02-04T01:15:59;2.90;;;1.50;;
20397;SDS011;10358;49.590;11.030;2024-02-04T01:18:25;2.73;;;1.83;;
20397;SDS011;10358;49.590;11.030;2024-02-04T01:20:50;2.43;;;1.47;;
20397;SDS011;10358;49.590;11.030;2024-02-04T01:23:16;3.10;;;1.50;;
20397;SDS011;10358;49.590;11.030;2024-02-04T01:25:44;2.03;;;1.50;;
20397;SDS011;10358;49.590;11.030;2024-02-04T01:28:10;2.17;;;1.40;;
20397;SDS011;10358;49.590;11.030;2024-02-04T01:30:36;2.00;;;1.40;;
20397;SDS011;10358;49.590;11.030;2024-02-04T01:33:02;2.37;;;1.40;;
20397;SDS011;10358;49.590;11.030;2024-02-04T01:35:28;2.93;;;1.53;;
20397;SDS011;10358;49.590;11.030;2024-02-04T01:37:54;1.50;;;1.40;;
20397;SDS011;10358;49.590;11.030;2024-02-04T01:40:19;1.80;;;1.40;;
20397;SDS011;10358;49.590;11.030;2024-02-04T01:42:45;1.50;;;1.40;;
20397;SDS011;10358;49.590;11.030;2024-02-04T01:45:11;2.90;;;1.50;;
20397;SDS011;10358;49.590;11.030;2024-02-04T01:47:36;3.23;;;1.80;;
20397;SDS011;10358;49.590;11.030;2024-02-04T01:50:02;1.20;;;1.10;;
20397;SDS011;10358;49.590;11.030;2024-02-04T01:52:29;2.47;;;1.40;;
20397;SDS011;10358;49.590;11.030;2024-02-04T01:54:56;2.07;;;1.60;;
20397;SDS011;10358;49.590;11.030;2024-02-04T01:57:23;2.23;;;1.40;;
20397;SDS011;10358;49.590;11.030;2024-02-04T01:59:49;1.50;;;1.20;;
20397;SDS011;10358;49.590;11.030;2024-02-04T02:02:17;1.40;;;1.30;;
20397;SDS011;10358;49.590;11.030;2024-02-04T02:04:43;1.87;;;1.30;;
20397;SDS011;10358;49.590;11.030;2024-02-04T02:07:10;1.70;;;1.30;;
20397;SDS011;10358;49.590;11.030;2024-02-04T02:09:37;2.77;;;1.30;;
20397;SDS011;10358;49.590;11.030;2024-02-04T02:12:05;3.30;;;1.30;;
20397;SDS011;10358;49.590;11.030;2024-02-04T02:14:35;2.60;;;1.30;;
20397;SDS011;10358;49.590;11.030;2024-02-04T02:17:07;4.33;;;1.60;;
20397;SDS011;10358;49.590;11.030;2024-02-04T02:22:25;2.93;;;1.30;;
20397;SDS011;10358;49.590;11.030;2024-02-04T02:24:56;1.83;;;1.30;;
20397;SDS011;10358;49.590;11.030;2024-02-04T02:27:22;1.90;;;1.57;;
20397;SDS011;10358;49.590;11.030;2024-02-04T02:29:48;2.43;;;1.60;;
20397;SDS011;10358;49.590;11.030;2024-02-04T02:32:13;3.20;;;1.80;;
20397;SDS011;10358;49.590;11.030;2024-02-04T02:34:39;2.30;;;1.50;;
20397;SDS011;10358;49.590;11.030;2024-02-04T02:37:12;2.80;;;1.70;;
20397;SDS011;10358;49.590;11.030;2024-02-04T02:42:32;3.43;;;1.90;;
20397;SDS011;10358;49.590;11.030;2024-02-04T02:44:59;1.87;;;1.67;;
20397;SDS011;10358;49.590;11.030;2024-02-04T02:47:26;2.87;;;1.90;;
20397;SDS011;10358;49.590;11.030;2024-02-04T02:49:53;2.53;;;1.70;;
20397;SDS011;10358;49.590;11.030;2024-02-04T02:52:20;2.67;;;1.80;;
20397;SDS011;10358;49.590;11.030;2024-02-04T02:54:46;2.43;;;1.90;;
20397;SDS011;10358;49.590;11.030;2024-02-04T02:57:11;3.43;;;1.97;;
20397;SDS011;10358;49.590;11.030;2024-02-04T02:59:37;2.97;;;2.13;;
20397;SDS011;10358;49.590;11.030;2024-02-04T03:02:02;2.83;;;1.80;;
20397;SDS011;10358;49.590;11.030;2024-02-04T03:04:28;2.67;;;2.17;;
20397;SDS011;10358;49.590;11.030;2024-02-04T03:06:54;3.30;;;1.87;;
20397;SDS011;10358;49.590;11.030;2024-02-04T03:09:19;3.93;;;2.10;;
20397;SDS011;10358;49.590;11.030;2024-02-04T03:11:45;4.60;;;2.27;;
20397;SDS011;10358;49.590;11.030;2024-02-04T03:14:11;3.57;;;2.30;;
20397;SDS011;10358;49.590;11.030;2024-02-04T03:16:38;3.20;;;2.30;;
20397;SDS011;10358;49.590;11.030;2024-02-04T03:19:05;3.93;;;2.40;;
20397;SDS011;10358;49.590;11.030;2024-02-04T03:21:31;3.53;;;2.40;;
20397;SDS011;10358;49.590;11.030;2024-02-04T03:23:56;3.30;;;2.50;;
20397;SDS011;10358;49.590;11.030;2024-02-04T03:26:22;3.30;;;2.70;;
20397;SDS011;10358;49.590;11.030;2024-02-04T03:28:47;3.23;;;2.30;;
20397;SDS011;10358;49.590;11.030;2024-02-04T03:31:20;4.20;;;2.63;;
20397;SDS011;10358;49.590;11.030;2024-02-04T03:33:46;3.23;;;2.83;;
20397;SDS011;10358;49.590;11.030;2024-02-04T03:36:12;3.77;;;3.00;;
20397;SDS011;10358;49.590;11.030;2024-02-04T03:38:39;3.47;;;2.70;;
20397;SDS011;10358;49.590;11.030;2024-02-04T03:41:05;4.53;;;2.70;;
20397;SDS011;10358;49.590;11.030;2024-02-04T03:43:30;3.83;;;2.93;;
20397;SDS011;10358;49.590;11.030;2024-02-04T03:45:56;4.17;;;3.03;;
20397;SDS011;10358;49.590;11.030;2024-02-04T03:48:22;4.63;;;3.20;;
20397;SDS011;10358;49.590;11.030;2024-02-04T03:50:47;6.30;;;3.10;;
20397;SDS011;10358;49.590;11.030;2024-02-04T03:53:13;5.37;;;3.03;;
20397;SDS011;10358;49.590;11.030;2024-02-04T03:55:38;7.17;;;3.47;;
20397;SDS011;10358;49.590;11.030;2024-02-04T03:58:04;4.23;;;3.20;;
20397;SDS011;10358;49.590;11.030;2024-02-04T04:00:29;4.70;;;3.40;;
20397;SDS011;10358;49.590;11.030;2024-02-04T04:02:55;5.67;;;3.47;;
20397;SDS011;10358;49.590;11.030;2024-02-04T04:05:21;4.27;;;3.07;;
20397;SDS011;10358;49.590;11.030;2024-02-04T04:07:47;4.03;;;3.33;;
20397;SDS011;10358;49.590;11.030;2024-02-04T04:10:12;5.67;;;3.80;;
20397;SDS011;10358;49.590;11.030;2024-02-04T04:12:38;5.20;;;3.50;;
20397;SDS011;10358;49.590;11.030;2024-02-04T04:15:04;5.87;;;3.80;;
20397;SDS011;10358;49.590;11.030;2024-02-04T04:17:30;4.83;;;3.60;;
20397;SDS011;10358;49.590;11.030;2024-02-04T04:19:55;8.43;;;4.00;;
20397;SDS011;10358;49.590;11.030;2024-02-04T04:22:21;6.23;;;3.73;;
20397;SDS011;10358;49.590;11.030;2024-02-04T04:24:46;5.37;;;3.90;;
20397;SDS011;10358;49.590;11.030;2024-02-04T04:27:12;4.23;;;3.27;;
20397;SDS011;10358;49.590;11.030;2024-02-04T04:29:37;8.70;;;3.50;;
20397;SDS011;10358;49.590;11.030;2024-02-04T04:32:03;4.70;;;3.57;;
20397;SDS011;10358;49.590;11.030;2024-02-04T04:34:29;5.20;;;3.70;;
20397;SDS011;10358;49.590;11.030;2024-02-04T04:36:55;4.23;;;3.23;;
20397;SDS011;10358;49.590;11.030;2024-02-04T04:39:20;5.03;;;3.10;;
20397;SDS011;10358;49.590;11.030;2024-02-04T04:41:46;3.93;;;2.90;;
20397;SDS011;10358;49.590;11.030;2024-02-04T04:44:11;3.80;;;3.10;;
20397;SDS011;10358;49.590;11.030;2024-02-04T04:46:37;5.43;;;3.20;;
20397;SDS011;10358;49.590;11.030;2024-02-04T04:49:04;3.73;;;3.03;;
20397;SDS011;10358;49.590;11.030;2024-02-04T04:51:30;3.80;;;2.97;;
20397;SDS011;10358;49.590;11.030;2024-02-04T04:53:55;3.90;;;2.80;;
20397;SDS011;10358;49.590;11.030;2024-02-04T04:56:21;4.73;;;2.90;;
20397;SDS011;10358;49.590;11.030;2024-02-04T04:58:47;5.23;;;3.10;;
20397;SDS011;10358;49.590;11.030;2024-02-04T05:01:12;4.03;;;2.67;;
20397;SDS011;10358;49.590;11.030;2024-02-04T05:03:38;2.97;;;2.30;;
20397;SDS011;10358;49.590;11.030;2024-02-04T05:06:05;3.70;;;2.50;;
20397;SDS011;10358;49.590;11.030;2024-02-04T05:08:30;3.70;;;2.20;;
20397;SDS011;10358;49.590;11.030;2024-02-04T05:13:45;3.53;;;2.20;;
20397;SDS011;10358;49.590;11.030;2024-02-04T05:16:10;3.03;;;2.10;;
20397;SDS011;10358;49.590;11.030;2024-02-04T05:18:36;3.93;;;2.20;;
20397;SDS011;10358;49.590;11.030;2024-02-04T05:21:02;2.57;;;1.67;;
20397;SDS011;10358;49.590;11.030;2024-02-04T05:23:28;2.60;;;1.90;;
20397;SDS011;10358;49.590;11.030;2024-02-04T05:25:53;2.17;;;1.57;;
20397;SDS011;10358;49.590;11.030;2024-02-04T05:28:19;1.97;;;1.70;;
20397;SDS011;10358;49.590;11.030;2024-02-04T05:30:44;2.37;;;1.80;;
20397;SDS011;10358;49.590;11.030;2024-02-04T05:33:13;2.07;;;1.53;;
20397;SDS011;10358;49.590;11.030;2024-02-04T05:35:39;1.73;;;1.47;;
20397;SDS011;10358;49.590;11.030;2024-02-04T05:38:07;2.03;;;1.60;;
20397;SDS011;10358;49.590;11.030;2024-02-04T05:40:34;1.57;;;1.20;;
20397;SDS011;10358;49.590;11.030;2024-02-04T05:43:00;3.17;;;1.50;;
20397;SDS011;10358;49.590;11.030;2024-02-04T05:45:30;2.00;;;1.40;;
20397;SDS011;10358;49.590;11.030;2024-02-04T05:47:56;2.10;;;1.40;;
20397;SDS011;10358;49.590;11.030;2024-02-04T05:50:21;1.70;;;1.10;;
20397;SDS011;10358;49.590;11.030;2024-02-04T05:52:47;1.50;;;1.20;;
20397;SDS011;10358;49.590;11.030;2024-02-04T05:55:16;2.03;;;1.40;;
20397;SDS011;10358;49.590;11.030;2024-02-04T05:57:42;1.20;;;1.00;;
20397;SDS011;10358;49.590;11.030;2024-02-04T06:00:08;1.30;;;1.00;;
20397;SDS011;10358;49.590;11.030;2024-02-04T06:02:35;1.10;;;1.00;;
20397;SDS011;10358;49.590;11.030;2024-02-04T06:05:01;2.33;;;1.00;;
20397;SDS011;10358;49.590;11.030;2024-02-04T06:07:27;0.97;;;0.87;;
20397;SDS011;10358;49.590;11.030;2024-02-04T06:09:52;1.10;;;1.00;;
20397;SDS011;10358;49.590;11.030;2024-02-04T06:12:23;0.93;;;0.80;;
20397;SDS011;10358;49.590;11.030;2024-02-04T06:14:49;1.00;;;0.83;;
20397;SDS011;10358;49.590;11.030;2024-02-04T06:17:14;1.47;;;1.00;;
20397;SDS011;10358;49.590;11.030;2024-02-04T06:19:43;1.37;;;1.00;;
20397;SDS011;10358;49.590;11.030;2024-02-04T06:22:08;2.77;;;1.07;;
20397;SDS011;10358;49.590;11.030;2024-02-04T06:24:34;1.63;;;1.00;;
20397;SDS011;10358;49.590;11.030;2024-02-04T06:27:02;0.90;;;0.80;;
20397;SDS011;10358;49.590;11.030;2024-02-04T06:29:28;2.40;;;1.03;;
20397;SDS011;10358;49.590;11.030;2024-02-04T06:31:53;1.10;;;1.00;;
20397;SDS011;10358;49.590;11.030;2024-02-04T06:34:19;1.20;;;1.00;;
20397;SDS011;10358;49.590;11.030;2024-02-04T06:36:44;1.60;;;1.10;;
20397;SDS011;10358;49.590;11.030;2024-02-04T06:39:10;1.50;;;1.10;;
20397;SDS011;10358;49.590;11.030;2024-02-04T06:41:39;2.70;;;1.80;;
20397;SDS011;10358;49.590;11.030;2024-02-04T06:44:05;2.07;;;1.13;;
20397;SDS011;10358;49.590;11.030;2024-02-04T06:46:31;3.73;;;1.27;;
20397;SDS011;10358;49.590;11.030;2024-02-04T06:48:56;1.23;;;1.13;;
20397;SDS011;10358;49.590;11.030;2024-02-04T06:51:22;1.20;;;1.10;;
20397;SDS011;10358;49.590;11.030;2024-02-04T06:53:48;1.40;;;1.20;;
20397;SDS011;10358;49.590;11.030;2024-02-04T06:56:14;1.63;;;1.00;;
20397;SDS011;10358;49.590;11.030;2024-02-04T06:58:42;1.20;;;0.90;;
20397;SDS011;10358;49.590;11.030;2024-02-04T07:01:11;1.60;;;1.00;;
20397;SDS011;10358;49.590;11.030;2024-02-04T07:03:37;1.63;;;1.00;;
20397;SDS011;10358;49.590;11.030;2024-02-04T07:06:04;1.67;;;1.03;;
20397;SDS011;10358;49.590;11.030;2024-02-04T07:08:31;1.77;;;1.10;;
20397;SDS011;10358;49.590;11.030;2024-02-04T07:10:56;1.00;;;0.90;;
20397;SDS011;10358;49.590;11.030;2024-02-04T07:13:22;1.27;;;0.90;;
20397;SDS011;10358;49.590;11.030;2024-02-04T07:15:48;1.43;;;0.80;;
20397;SDS011;10358;49.590;11.030;2024-02-04T07:18:13;1.10;;;1.00;;
20397;SDS011;10358;49.590;11.030;2024-02-04T07:20:39;1.10;;;1.00;;
20397;SDS011;10358;49.590;11.030;2024-02-04T07:23:05;1.00;;;0.90;;
20397;SDS011;10358;49.590;11.030;2024-02-04T07:25:30;1.10;;;1.00;;
20397;SDS011;10358;49.590;11.030;2024-02-04T07:27:56;0.90;;;0.80;;
20397;SDS011;10358;49.590;11.030;2024-02-04T07:30:23;0.97;;;0.90;;
20397;SDS011;10358;49.590;11.030;2024-02-04T07:32:49;1.30;;;0.97;;
20397;SDS011;10358;49.590;11.030;2024-02-04T07:35:14;1.30;;;1.10;;
20397;SDS011;10358;49.590;11.030;2024-02-04T07:37:40;0.97;;;0.87;;
20397;SDS011;10358;49.590;11.030;2024-02-04T07:40:06;1.10;;;1.00;;
20397;SDS011;10358;49.590;11.030;2024-02-04T07:42:32;1.20;;;0.90;;
20397;SDS011;10358;49.590;11.030;2024-02-04T07:44:57;0.93;;;0.80;;
20397;SDS011;10358;49.590;11.030;2024-02-04T07:47:23;1.73;;;0.90;;
20397;SDS011;10358;49.590;11.030;2024-02-04T07:49:49;1.03;;;0.80;;
20397;SDS011;10358;49.590;11.030;2024-02-04T07:52:15;1.30;;;0.90;;
20397;SDS011;10358;49.590;11.030;2024-02-04T07:54:41;1.00;;;0.90;;
20397;SDS011;10358;49.590;11.030;2024-02-04T07:57:08;1.30;;;0.70;;
20397;SDS011;10358;49.590;11.030;2024-02-04T07:59:40;1.30;;;0.90;;
20397;SDS011;10358;49.590;11.030;2024-02-04T08:02:09;1.60;;;0.77;;
20397;SDS011;10358;49.590;11.030;2024-02-04T08:04:35;1.73;;;0.80;;
20397;SDS011;10358;49.590;11.030;2024-02-04T08:07:00;1.37;;;0.90;;
20397;SDS011;10358;49.590;11.030;2024-02-04T08:09:26;1.43;;;0.80;;
20397;SDS011;10358;49.590;11.030;2024-02-04T08:11:52;1.00;;;0.70;;
20397;SDS011;10358;49.590;11.030;2024-02-04T08:14:17;1.10;;;0.80;;
20397;SDS011;10358;49.590;11.030;2024-02-04T08:16:43;1.90;;;0.80;;
20397;SDS011;10358;49.590;11.030;2024-02-04T08:19:11;1.53;;;0.90;;
20397;SDS011;10358;49.590;11.030;2024-02-04T08:21:36;0.80;;;0.80;;
20397;SDS011;10358;49.590;11.030;2024-02-04T08:24:02;1.23;;;0.70;;
20397;SDS011;10358;49.590;11.030;2024-02-04T08:26:28;1.13;;;0.90;;
20397;SDS011;10358;49.590;11.030;2024-02-04T08:28:53;0.93;;;0.70;;
20397;SDS011;10358;49.590;11.030;2024-02-04T08:31:19;0.60;;;0.60;;
20397;SDS011;10358;49.590;11.030;2024-02-04T08:33:45;1.47;;;0.70;;
20397;SDS011;10358;49.590;11.030;2024-02-04T08:36:10;0.80;;;0.80;;
20397;SDS011;10358;49.590;11.030;2024-02-04T08:38:36;1.93;;;0.70;;
20397;SDS011;10358;49.590;11.030;2024-02-04T08:41:02;1.97;;;0.80;;
20397;SDS011;10358;49.590;11.030;2024-02-04T08:43:28;1.83;;;0.80;;
20397;SDS011;10358;49.590;11.030;2024-02-04T08:45:54;1.23;;;0.63;;
20397;SDS011;10358;49.590;11.030;2024-02-04T08:48:19;1.67;;;0.80;;
20397;SDS011;10358;49.590;11.030;2024-02-04T08:50:45;2.20;;;0.97;;
20397;SDS011;10358;49.590;11.030;2024-02-04T08:53:11;1.43;;;1.00;;
20397;SDS011;10358;49.590;11.030;2024-02-04T08:55:36;1.00;;;0.87;;
20397;SDS011;10358;49.590;11.030;2024-02-04T08:58:02;1.13;;;0.60;;
20397;SDS011;10358;49.590;11.030;2024-02-04T09:00:28;0.80;;;0.80;;
20397;SDS011;10358;49.590;11.030;2024-02-04T09:02:53;0.90;;;0.80;;
20397;SDS011;10358;49.590;11.030;2024-02-04T09:05:19;0.83;;;0.80;;
20397;SDS011;10358;49.590;11.030;2024-02-04T09:07:45;1.03;;;0.70;;
20397;SDS011;10358;49.590;11.030;2024-02-04T09:10:13;1.43;;;0.90;;
20397;SDS011;10358;49.590;11.030;2024-02-04T09:12:39;0.70;;;0.70;;
20397;SDS011;10358;49.590;11.030;2024-02-04T09:15:05;1.00;;;0.90;;
20397;SDS011;10358;49.590;11.030;2024-02-04T09:17:31;1.10;;;0.70;;
20397;SDS011;10358;49.590;11.030;2024-02-04T09:19:59;1.00;;;0.90;;
20397;SDS011;10358;49.590;11.030;2024-02-04T09:22:25;1.37;;;0.80;;
20397;SDS011;10358;49.590;11.030;2024-02-04T09:24:51;1.30;;;0.70;;
20397;SDS011;10358;49.590;11.030;2024-02-04T09:27:16;0.80;;;0.80;;
20397;SDS011;10358;49.590;11.030;2024-02-04T09:29:42;3.10;;;1.07;;
20397;SDS011;10358;49.590;11.030;2024-02-04T09:32:07;1.17;;;0.80;;
20397;SDS011;10358;49.590;11.030;2024-02-04T09:34:33;1.30;;;0.90;;
20397;SDS011;10358;49.590;11.030;2024-02-04T09:36:58;0.80;;;0.80;;
20397;SDS011;10358;49.590;11.030;2024-02-04T09:39:28;1.20;;;0.80;;
20397;SDS011;10358;49.590;11.030;2024-02-04T09:41:54;0.73;;;0.70;;
20397;SDS011;10358;49.590;11.030;2024-02-04T09:44:20;0.80;;;0.80;;
20397;SDS011;10358;49.590;11.030;2024-02-04T09:46:47;0.80;;;0.80;;
20397;SDS011;10358;49.590;11.030;2024-02-04T09:49:17;0.83;;;0.70;;
20397;SDS011;10358;49.590;11.030;2024-02-04T09:51:42;1.27;;;0.80;;
20397;SDS011;10358;49.590;11.030;2024-02-04T09:54:10;1.07;;;0.70;;
20397;SDS011;10358;49.590;11.030;2024-02-04T09:56:37;0.60;;;0.60;;
20397;SDS011;10358;49.590;11.030;2024-02-04T09:59:03;2.53;;;0.60;;
20397;SDS011;10358;49.590;11.030;2024-02-04T10:01:29;0.67;;;0.57;;
20397;SDS011;10358;49.590;11.030;2024-02-04T10:03:56;0.60;;;0.60;;
20397;SDS011;10358;49.590;11.030;2024-02-04T10:06:22;0.90;;;0.60;;
20397;SDS011;10358;49.590;11.030;2024-02-04T10:08:49;1.10;;;0.60;;
20397;SDS011;10358;49.590;11.030;2024-02-04T10:11:14;1.97;;;0.70;;
20397;SDS011;10358;49.590;11.030;2024-02-04T10:16:09;0.87;;;0.80;;
20397;SDS011;10358;49.590;11.030;2024-02-04T10:18:34;0.97;;;0.60;;
20397;SDS011;10358;49.590;11.030;2024-02-04T10:21:00;1.27;;;0.50;;
20397;SDS011;10358;49.590;11.030;2024-02-04T10:23:26;0.70;;;0.60;;
20397;SDS011;10358;49.590;11.030;2024-02-04T10:25:59;2.00;;;0.70;;
20397;SDS011;10358;49.590;11.030;2024-02-04T10:28:24;0.93;;;0.70;;
20397;SDS011;10358;49.590;11.030;2024-02-04T10:30:50;0.83;;;0.60;;
20397;SDS011;10358;49.590;11.030;2024-02-04T10:33:16;0.77;;;0.50;;
20397;SDS011;10358;49.590;11.030;2024-02-04T10:35:42;2.43;;;1.10;;
20397;SDS011;10358;49.590;11.030;2024-02-04T10:38:08;0.60;;;0.40;;
20397;SDS011;10358;49.590;11.030;2024-02-04T10:40:35;0.67;;;0.60;;
20397;SDS011;10358;49.590;11.030;2024-02-04T10:43:04;0.83;;;0.70;;
20397;SDS011;10358;49.590;11.030;2024-02-04T10:45:32;0.73;;;0.50;;
20397;SDS011;10358;49.590;11.030;2024-02-04T10:48:00;0.70;;;0.60;;
20397;SDS011;10358;49.590;11.030;2024-02-04T10:50:27;0.80;;;0.70;;
20397;SDS011;10358;49.590;11.030;2024-02-04T10:52:54;0.40;;;0.40;;
20397;SDS011;10358;49.590;11.030;2024-02-04T10:55:29;1.23;;;0.60;;
20397;SDS011;10358;49.590;11.030;2024-02-04T10:57:56;1.37;;;0.50;;
20397;SDS011;10358;49.590;11.030;2024-02-04T11:00:23;0.70;;;0.50;;
20397;SDS011;10358;49.590;11.030;2024-02-04T11:02:49;0.50;;;0.50;;
20397;SDS011;10358;49.590;11.030;2024-02-04T11:05:19;0.57;;;0.57;;
20397;SDS011;10358;49.590;11.030;2024-02-04T11:07:45;1.60;;;0.70;;
20397;SDS011;10358;49.590;11.030;2024-02-04T11:10:11;0.60;;;0.60;;
20397;SDS011;10358;49.590;11.030;2024-02-04T11:12:40;1.23;;;0.60;;
20397;SDS011;10358;49.590;11.030;2024-02-04T11:15:07;1.53;;;0.60;;
20397;SDS011;10358;49.590;11.030;2024-02-04T11:25:45;1.00;;;0.70;;
20397;SDS011;10358;49.590;11.030;2024-02-04T11:28:20;0.73;;;0.60;;
20397;SDS011;10358;49.590;11.030;2024-02-04T11:30:47;2.13;;;0.70;;
20397;SDS011;10358;49.590;11.030;2024-02-04T11:33:17;0.60;;;0.60;;
20397;SDS011;10358;49.590;11.030;2024-02-04T11:35:44;1.00;;;0.60;;
20397;SDS011;10358;49.590;11.030;2024-02-04T11:38:09;0.97;;;0.70;;
20397;SDS011;10358;49.590;11.030;2024-02-04T11:40:38;0.60;;;0.60;;
20397;SDS011;10358;49.590;11.030;2024-02-04T11:43:11;0.80;;;0.50;;
20397;SDS011;10358;49.590;11.030;2024-02-04T11:45:38;0.73;;;0.70;;
20397;SDS011;10358;49.590;11.030;2024-02-04T11:48:09;1.20;;;0.80;;
20397;SDS011;10358;49.590;11.030;2024-02-04T11:50:35;0.97;;;0.73;;
20397;SDS011;10358;49.590;11.030;2024-02-04T11:53:06;0.87;;;0.57;;
20397;SDS011;10358;49.590;11.030;2024-02-04T11:55:31;1.90;;;0.80;;
20397;SDS011;10358;49.590;11.030;2024-02-04T11:57:58;0.70;;;0.60;;
20397;SDS011;10358;49.590;11.030;2024-02-04T12:00:25;2.10;;;0.77;;
20397;SDS011;10358;49.590;11.030;2024-02-04T12:03:03;0.90;;;0.80;;
20397;SDS011;10358;49.590;11.030;2024-02-04T12:05:34;0.50;;;0.50;;
20397;SDS011;10358;49.590;11.030;2024-02-04T12:08:04;0.93;;;0.80;;
20397;SDS011;10358;49.590;11.030;2024-02-04T12:10:36;1.13;;;0.77;;
20397;SDS011;10358;49.590;11.030;2024-02-04T12:13:04;0.63;;;0.60;;
20397;SDS011;10358;49.590;11.030;2024-02-04T12:15:31;0.70;;;0.70;;
20397;SDS011;10358;49.590;11.030;2024-02-04T12:18:07;1.00;;;0.70;;
20397;SDS011;10358;49.590;11.030;2024-02-04T12:20:33;1.40;;;0.90;;
20397;SDS011;10358;49.590;11.030;2024-02-04T12:23:02;1.23;;;0.93;;
20397;SDS011;10358;49.590;11.030;2024-02-04T12:25:28;2.80;;;0.60;;
20397;SDS011;10358;49.590;11.030;2024-02-04T12:27:55;1.00;;;0.60;;
20397;SDS011;10358;49.590;11.030;2024-02-04T12:30:28;0.60;;;0.60;;
20397;SDS011;10358;49.590;11.030;2024-02-04T12:32:55;1.30;;;0.60;;
20397;SDS011;10358;49.590;11.030;2024-02-04T12:35:25;0.70;;;0.70;;
20397;SDS011;10358;49.590;11.030;2024-02-04T12:37:54;0.90;;;0.70;;
20397;SDS011;10358;49.590;11.030;2024-02-04T12:40:25;0.80;;;0.50;;
20397;SDS011;10358;49.590;11.030;2024-02-04T12:42:54;0.50;;;0.47;;
20397;SDS011;10358;49.590;11.030;2024-02-04T12:45:23;0.63;;;0.63;;
20397;SDS011;10358;49.590;11.030;2024-02-04T12:47:50;1.10;;;0.70;;
20397;SDS011;10358;49.590;11.030;2024-02-04T12:50:20;1.23;;;0.73;;
20397;SDS011;10358;49.590;11.030;2024-02-04T12:52:46;1.00;;;0.67;;
20397;SDS011;10358;49.590;11.030;2024-02-04T12:55:19;1.03;;;0.77;;
20397;SDS011;10358;49.590;11.030;2024-02-04T12:57:49;0.73;;;0.70;;
20397;SDS011;10358;49.590;11.030;2024-02-04T13:00:17;1.27;;;0.90;;
20397;SDS011;10358;49.590;11.030;2024-02-04T13:02:43;0.77;;;0.60;;
20397;SDS011;10358;49.590;11.030;2024-02-04T13:05:09;0.60;;;0.60;;
20397;SDS011;10358;49.590;11.030;2024-02-04T13:07:35;1.23;;;0.80;;
20397;SDS011;10358;49.590;11.030;2024-02-04T13:10:01;0.80;;;0.60;;
20397;SDS011;10358;49.590;11.030;2024-02-04T13:12:27;0.77;;;0.60;;
20397;SDS011;10358;49.590;11.030;2024-02-04T13:14:52;0.90;;;0.70;;
20397;SDS011;10358;49.590;11.030;2024-02-04T13:17:18;0.63;;;0.63;;
20397;SDS011;10358;49.590;11.030;2024-02-04T13:19:44;2.53;;;0.90;;
20397;SDS011;10358;49.590;11.030;2024-02-04T13:22:09;1.10;;;0.90;;
20397;SDS011;10358;49.590;11.030;2024-02-04T13:24:35;0.70;;;0.70;;
20397;SDS011;10358;49.590;11.030;2024-02-04T13:27:01;0.53;;;0.53;;
20397;SDS011;10358;49.590;11.030;2024-02-04T13:29:28;0.63;;;0.60;;
20397;SDS011;10358;49.590;11.030;2024-02-04T13:31:55;0.60;;;0.60;;
20397;SDS011;10358;49.590;11.030;2024-02-04T13:34:21;0.73;;;0.60;;
20397;SDS011;10358;49.590;11.030;2024-02-04T13:36:46;0.93;;;0.70;;
20397;SDS011;10358;49.590;11.030;2024-02-04T13:39:12;1.57;;;0.70;;
20397;SDS011;10358;49.590;11.030;2024-02-04T13:41:38;1.13;;;0.60;;
20397;SDS011;10358;49.590;11.030;2024-02-04T13:44:04;0.93;;;0.70;;
20397;SDS011;10358;49.590;11.030;2024-02-04T13:46:30;0.83;;;0.60;;
20397;SDS011;10358;49.590;11.030;2024-02-04T13:48:56;0.80;;;0.70;;
20397;SDS011;10358;49.590;11.030;2024-02-04T13:51:21;1.33;;;0.70;;
20397;SDS011;10358;49.590;11.030;2024-02-04T13:53:47;0.70;;;0.60;;
20397;SDS011;10358;49.590;11.030;2024-02-04T13:56:13;0.90;;;0.70;;
20397;SDS011;10358;49.590;11.030;2024-02-04T13:58:38;0.83;;;0.60;;
20397;SDS011;10358;49.590;11.030;2024-02-04T14:01:04;1.03;;;0.77;;
20397;SDS011;10358;49.590;11.030;2024-02-04T14:03:29;0.77;;;0.53;;
20397;SDS011;10358;49.590;11.030;2024-02-04T14:05:56;1.53;;;0.90;;
20397;SDS011;10358;49.590;11.030;2024-02-04T14:08:21;2.17;;;0.87;;
20397;SDS011;10358;49.590;11.030;2024-02-04T14:10:47;0.83;;;0.77;;
20397;SDS011;10358;49.590;11.030;2024-02-04T14:13:12;1.37;;;0.73;;
20397;SDS011;10358;49.590;11.030;2024-02-04T14:15:38;1.50;;;1.00;;
20397;SDS011;10358;49.590;11.030;2024-02-04T14:18:04;0.93;;;0.60;;
20397;SDS011;10358;49.590;11.030;2024-02-04T14:20:30;2.80;;;0.90;;
20397;SDS011;10358;49.590;11.030;2024-02-04T14:22:56;3.80;;;0.80;;
20397;SDS011;10358;49.590;11.030;2024-02-04T14:25:22;1.40;;;0.80;;
20397;SDS011;10358;49.590;11.030;2024-02-04T14:27:49;1.13;;;0.80;;
20397;SDS011;10358;49.590;11.030;2024-02-04T14:30:15;1.10;;;0.87;;
20397;SDS011;10358;49.590;11.030;2024-02-04T14:32:40;1.67;;;1.00;;
20397;SDS011;10358;49.590;11.030;2024-02-04T14:35:07;1.50;;;0.90;;
20397;SDS011;10358;49.590;11.030;2024-02-04T14:37:35;1.77;;;1.00;;
20397;SDS011;10358;49.590;11.030;2024-02-04T14:40:01;1.07;;;0.83;;
20397;SDS011;10358;49.590;11.030;2024-02-04T14:42:28;3.03;;;1.20;;
20397;SDS011;10358;49.590;11.030;2024-02-04T14:44:54;1.40;;;1.10;;
20397;SDS011;10358;49.590;11.030;2024-02-04T14:47:19;1.93;;;1.00;;